sensor_id;sensor_type;location;lat;lon;timestamp;pressure;altitude;pressure_sealevel;temperature
11849;BMP180;5983;49.966;8.052;2023-03-03T00:00:49;100884.00;;;1.70
11849;BMP180;5983;49.966;8.052;2023-03-03T00:03:19;100879.00;;;1.70
11849;BMP180;5983;49.966;8.052;2023-03-03T00:05:46;100885.00;;;1.70
11849;BMP180;5983;49.966;8.052;2023-03-03T00:08:14;100885.00;;;1.70
11849;BMP180;5983;49.966;8.052;2023-03-03T00:10:41;100876.00;;;1.60
11849;BMP180;5983;49.966;8.052;2023-03-03T00:13:16;100881.00;;;1.60
11849;BMP180;5983;49.966;8.052;2023-03-03T00:15:44;100882.00;;;1.50
11849;BMP180;5983;49.966;8.052;2023-03-03T00:18:24;100887.00;;;1.50
11849;BMP180;5983;49.966;8.052;2023-03-03T00:20:55;100886.00;;;1.50
11849;BMP180;5983;49.966;8.052;2023-03-03T00:23:29;100889.00;;;1.50
11849;BMP180;5983;49.966;8.052;2023-03-03T00:25:57;100888.00;;;1.50
11849;BMP180;5983;49.966;8.052;2023-03-03T00:28:29;100893.00;;;1.40
11849;BMP180;5983;49.966;8.052;2023-03-03T00:30:59;100891.00;;;1.30
11849;BMP180;5983;49.966;8.052;2023-03-03T00:33:31;100906.00;;;1.30
11849;BMP180;5983;49.966;8.052;2023-03-03T00:36:21;100908.00;;;1.20
11849;BMP180;5983;49.966;8.052;2023-03-03T00:38:55;100911.00;;;1.20
11849;BMP180;5983;49.966;8.052;2023-03-03T00:41:26;100909.00;;;1.10
11849;BMP180;5983;49.966;8.052;2023-03-03T00:43:54;100916.00;;;1.20
11849;BMP180;5983;49.966;8.052;2023-03-03T00:46:22;100918.00;;;1.20
11849;BMP180;5983;49.966;8.052;2023-03-03T00:48:51;100914.00;;;1.20
11849;BMP180;5983;49.966;8.052;2023-03-03T00:51:28;100916.00;;;1.20
11849;BMP180;5983;49.966;8.052;2023-03-03T00:53:57;100919.00;;;1.20
11849;BMP180;5983;49.966;8.052;2023-03-03T00:56:26;100919.00;;;1.20
11849;BMP180;5983;49.966;8.052;2023-03-03T00:58:53;100933.00;;;1.20
11849;BMP180;5983;49.966;8.052;2023-03-03T01:01:20;100931.00;;;1.10
11849;BMP180;5983;49.966;8.052;2023-03-03T01:03:47;100936.00;;;0.90
11849;BMP180;5983;49.966;8.052;2023-03-03T01:06:15;100924.00;;;0.80
11849;BMP180;5983;49.966;8.052;2023-03-03T01:08:42;100932.00;;;0.90
11849;BMP180;5983;49.966;8.052;2023-03-03T01:11:14;100926.00;;;0.90
11849;BMP180;5983;49.966;8.052;2023-03-03T01:13:47;100916.00;;;0.90
11849;BMP180;5983;49.966;8.052;2023-03-03T01:16:15;100918.00;;;0.90
11849;BMP180;5983;49.966;8.052;2023-03-03T01:18:42;100921.00;;;0.90
11849;BMP180;5983;49.966;8.052;2023-03-03T01:21:10;100902.00;;;0.90
11849;BMP180;5983;49.966;8.052;2023-03-03T01:23:42;100908.00;;;0.80
11849;BMP180;5983;49.966;8.052;2023-03-03T01:26:09;100909.00;;;0.80
11849;BMP180;5983;49.966;8.052;2023-03-03T01:28:36;100905.00;;;0.80
11849;BMP180;5983;49.966;8.052;2023-03-03T01:31:04;100912.00;;;0.80
11849;BMP180;5983;49.966;8.052;2023-03-03T01:33:33;100904.00;;;0.70
11849;BMP180;5983;49.966;8.052;2023-03-03T01:36:01;100899.00;;;0.70
11849;BMP180;5983;49.966;8.052;2023-03-03T01:38:28;100916.00;;;0.80
11849;BMP180;5983;49.966;8.052;2023-03-03T01:40:59;100910.00;;;0.70
11849;BMP180;5983;49.966;8.052;2023-03-03T01:43:27;100907.00;;;0.70
11849;BMP180;5983;49.966;8.052;2023-03-03T01:46:47;100917.00;;;0.60
11849;BMP180;5983;49.966;8.052;2023-03-03T01:49:20;100913.00;;;0.60
11849;BMP180;5983;49.966;8.052;2023-03-03T01:51:54;100913.00;;;0.50
11849;BMP180;5983;49.966;8.052;2023-03-03T01:54:28;100911.00;;;0.50
11849;BMP180;5983;49.966;8.052;2023-03-03T01:57:00;100907.00;;;0.50
11849;BMP180;5983;49.966;8.052;2023-03-03T01:59:33;100904.00;;;0.50
11849;BMP180;5983;49.966;8.052;2023-03-03T02:02:01;100909.00;;;0.50
11849;BMP180;5983;49.966;8.052;2023-03-03T02:04:28;100905.00;;;0.40
11849;BMP180;5983;49.966;8.052;2023-03-03T02:07:00;100907.00;;;0.30
11849;BMP180;5983;49.966;8.052;2023-03-03T02:09:38;100900.00;;;0.30
11849;BMP180;5983;49.966;8.052;2023-03-03T02:12:12;100905.00;;;0.30
11849;BMP180;5983;49.966;8.052;2023-03-03T02:14:42;100909.00;;;0.20
11849;BMP180;5983;49.966;8.052;2023-03-03T02:17:09;100895.00;;;0.10
11849;BMP180;5983;49.966;8.052;2023-03-03T02:19:47;100899.00;;;0.20
11849;BMP180;5983;49.966;8.052;2023-03-03T02:22:23;100895.00;;;0.20
11849;BMP180;5983;49.966;8.052;2023-03-03T02:24:56;100900.00;;;0.20
11849;BMP180;5983;49.966;8.052;2023-03-03T02:27:30;100898.00;;;0.20
11849;BMP180;5983;49.966;8.052;2023-03-03T02:29:57;100911.00;;;0.10
11849;BMP180;5983;49.966;8.052;2023-03-03T02:32:33;100904.00;;;0.20
11849;BMP180;5983;49.966;8.052;2023-03-03T02:35:00;100898.00;;;0.20
11849;BMP180;5983;49.966;8.052;2023-03-03T02:37:27;100902.00;;;0.10
11849;BMP180;5983;49.966;8.052;2023-03-03T02:39:54;100914.00;;;0.20
11849;BMP180;5983;49.966;8.052;2023-03-03T02:42:28;100900.00;;;0.10
11849;BMP180;5983;49.966;8.052;2023-03-03T02:44:56;100891.00;;;0.00
11849;BMP180;5983;49.966;8.052;2023-03-03T02:47:23;100899.00;;;0.00
11849;BMP180;5983;49.966;8.052;2023-03-03T02:49:50;100904.00;;;0.00
11849;BMP180;5983;49.966;8.052;2023-03-03T02:52:17;100900.00;;;0.00
11849;BMP180;5983;49.966;8.052;2023-03-03T02:54:43;100899.00;;;0.00
11849;BMP180;5983;49.966;8.052;2023-03-03T02:57:10;100886.00;;;0.00
11849;BMP180;5983;49.966;8.052;2023-03-03T02:59:38;100898.00;;;-0.10
11849;BMP180;5983;49.966;8.052;2023-03-03T03:02:05;100897.00;;;-0.10
11849;BMP180;5983;49.966;8.052;2023-03-03T03:04:33;100899.00;;;-0.20
11849;BMP180;5983;49.966;8.052;2023-03-03T03:07:00;100900.00;;;-0.10
11849;BMP180;5983;49.966;8.052;2023-03-03T03:09:28;100901.00;;;-0.10
11849;BMP180;5983;49.966;8.052;2023-03-03T03:11:54;100898.00;;;-0.10
11849;BMP180;5983;49.966;8.052;2023-03-03T03:14:21;100909.00;;;-0.20
11849;BMP180;5983;49.966;8.052;2023-03-03T03:16:50;100897.00;;;-0.20
11849;BMP180;5983;49.966;8.052;2023-03-03T03:19:17;100901.00;;;-0.20
11849;BMP180;5983;49.966;8.052;2023-03-03T03:21:44;100900.00;;;-0.20
11849;BMP180;5983;49.966;8.052;2023-03-03T03:24:11;100896.00;;;-0.20
11849;BMP180;5983;49.966;8.052;2023-03-03T03:26:38;100902.00;;;-0.20
11849;BMP180;5983;49.966;8.052;2023-03-03T03:29:05;100902.00;;;-0.30
11849;BMP180;5983;49.966;8.052;2023-03-03T03:31:32;100906.00;;;-0.40
11849;BMP180;5983;49.966;8.052;2023-03-03T03:34:00;100896.00;;;-0.50
11849;BMP180;5983;49.966;8.052;2023-03-03T03:36:27;100904.00;;;-0.50
11849;BMP180;5983;49.966;8.052;2023-03-03T03:38:54;100902.00;;;-0.50
11849;BMP180;5983;49.966;8.052;2023-03-03T03:41:21;100904.00;;;-0.60
11849;BMP180;5983;49.966;8.052;2023-03-03T03:43:47;100909.00;;;-0.60
11849;BMP180;5983;49.966;8.052;2023-03-03T03:46:14;100910.00;;;-0.50
11849;BMP180;5983;49.966;8.052;2023-03-03T03:48:41;100914.00;;;-0.60
11849;BMP180;5983;49.966;8.052;2023-03-03T03:51:11;100910.00;;;-0.60
11849;BMP180;5983;49.966;8.052;2023-03-03T03:53:38;100913.00;;;-0.60
11849;BMP180;5983;49.966;8.052;2023-03-03T03:56:06;100911.00;;;-0.60
11849;BMP180;5983;49.966;8.052;2023-03-03T03:58:33;100911.00;;;-0.70
11849;BMP180;5983;49.966;8.052;2023-03-03T04:01:05;100911.00;;;-0.70
11849;BMP180;5983;49.966;8.052;2023-03-03T04:03:32;100916.00;;;-0.80
11849;BMP180;5983;49.966;8.052;2023-03-03T04:05:59;100900.00;;;-0.80
11849;BMP180;5983;49.966;8.052;2023-03-03T04:08:27;100900.00;;;-0.70
11849;BMP180;5983;49.966;8.052;2023-03-03T04:10:54;100915.00;;;-0.70
11849;BMP180;5983;49.966;8.052;2023-03-03T04:13:21;100910.00;;;-0.80
11849;BMP180;5983;49.966;8.052;2023-03-03T04:15:48;100922.00;;;-0.80
11849;BMP180;5983;49.966;8.052;2023-03-03T04:18:15;100919.00;;;-0.80
11849;BMP180;5983;49.966;8.052;2023-03-03T04:20:42;100917.00;;;-0.90
11849;BMP180;5983;49.966;8.052;2023-03-03T04:23:09;100927.00;;;-0.80
11849;BMP180;5983;49.966;8.052;2023-03-03T04:25:37;100915.00;;;-0.90
11849;BMP180;5983;49.966;8.052;2023-03-03T04:28:04;100919.00;;;-0.90
11849;BMP180;5983;49.966;8.052;2023-03-03T04:30:32;100918.00;;;-0.90
11849;BMP180;5983;49.966;8.052;2023-03-03T04:32:58;100928.00;;;-0.90
11849;BMP180;5983;49.966;8.052;2023-03-03T04:35:25;100929.00;;;-0.80
11849;BMP180;5983;49.966;8.052;2023-03-03T04:37:53;100925.00;;;-0.80
11849;BMP180;5983;49.966;8.052;2023-03-03T04:40:20;100927.00;;;-0.80
11849;BMP180;5983;49.966;8.052;2023-03-03T04:42:48;100930.00;;;-0.80
11849;BMP180;5983;49.966;8.052;2023-03-03T04:45:15;100937.00;;;-0.80
11849;BMP180;5983;49.966;8.052;2023-03-03T04:47:42;100938.00;;;-0.80
11849;BMP180;5983;49.966;8.052;2023-03-03T04:50:10;100940.00;;;-0.80
11849;BMP180;5983;49.966;8.052;2023-03-03T04:52:37;100933.00;;;-1.00
11849;BMP180;5983;49.966;8.052;2023-03-03T04:55:05;100930.00;;;-1.00
11849;BMP180;5983;49.966;8.052;2023-03-03T04:57:32;100921.00;;;-1.00
11849;BMP180;5983;49.966;8.052;2023-03-03T05:00:01;100929.00;;;-1.10
11849;BMP180;5983;49.966;8.052;2023-03-03T05:02:29;100929.00;;;-1.00
11849;BMP180;5983;49.966;8.052;2023-03-03T05:04:55;100933.00;;;-1.00
11849;BMP180;5983;49.966;8.052;2023-03-03T05:07:22;100938.00;;;-1.00
11849;BMP180;5983;49.966;8.052;2023-03-03T05:09:49;100935.00;;;-1.00
11849;BMP180;5983;49.966;8.052;2023-03-03T05:12:17;100936.00;;;-1.00
11849;BMP180;5983;49.966;8.052;2023-03-03T05:14:44;100936.00;;;-1.10
11849;BMP180;5983;49.966;8.052;2023-03-03T05:17:12;100942.00;;;-1.10
11849;BMP180;5983;49.966;8.052;2023-03-03T05:19:39;100932.00;;;-1.20
11849;BMP180;5983;49.966;8.052;2023-03-03T05:22:06;100935.00;;;-1.20
11849;BMP180;5983;49.966;8.052;2023-03-03T05:24:33;100946.00;;;-1.30
11849;BMP180;5983;49.966;8.052;2023-03-03T05:27:00;100933.00;;;-1.30
11849;BMP180;5983;49.966;8.052;2023-03-03T05:29:28;100920.00;;;-1.30
11849;BMP180;5983;49.966;8.052;2023-03-03T05:31:56;100933.00;;;-1.40
11849;BMP180;5983;49.966;8.052;2023-03-03T05:34:24;100928.00;;;-1.50
11849;BMP180;5983;49.966;8.052;2023-03-03T05:36:51;100932.00;;;-1.50
11849;BMP180;5983;49.966;8.052;2023-03-03T05:39:18;100932.00;;;-1.60
11849;BMP180;5983;49.966;8.052;2023-03-03T05:41:45;100935.00;;;-1.60
11849;BMP180;5983;49.966;8.052;2023-03-03T05:44:12;100941.00;;;-1.60
11849;BMP180;5983;49.966;8.052;2023-03-03T05:46:38;100949.00;;;-1.60
11849;BMP180;5983;49.966;8.052;2023-03-03T05:49:07;100957.00;;;-1.60
11849;BMP180;5983;49.966;8.052;2023-03-03T05:51:35;100944.00;;;-1.60
11849;BMP180;5983;49.966;8.052;2023-03-03T05:54:02;100940.00;;;-1.50
11849;BMP180;5983;49.966;8.052;2023-03-03T05:56:29;100951.00;;;-1.50
11849;BMP180;5983;49.966;8.052;2023-03-03T05:58:56;100961.00;;;-1.40
11849;BMP180;5983;49.966;8.052;2023-03-03T06:01:23;100954.00;;;-1.40
11849;BMP180;5983;49.966;8.052;2023-03-03T06:03:50;100955.00;;;-1.30
11849;BMP180;5983;49.966;8.052;2023-03-03T06:06:17;100960.00;;;-1.30
11849;BMP180;5983;49.966;8.052;2023-03-03T06:08:47;100954.00;;;-1.30
11849;BMP180;5983;49.966;8.052;2023-03-03T06:11:15;100954.00;;;-1.30
11849;BMP180;5983;49.966;8.052;2023-03-03T06:13:44;100963.00;;;-1.30
11849;BMP180;5983;49.966;8.052;2023-03-03T06:16:11;100973.00;;;-1.30
11849;BMP180;5983;49.966;8.052;2023-03-03T06:18:37;100981.00;;;-1.40
11849;BMP180;5983;49.966;8.052;2023-03-03T06:21:05;100976.00;;;-1.40
11849;BMP180;5983;49.966;8.052;2023-03-03T06:23:32;100972.00;;;-1.40
11849;BMP180;5983;49.966;8.052;2023-03-03T06:26:00;100983.00;;;-1.50
11849;BMP180;5983;49.966;8.052;2023-03-03T06:28:27;100986.00;;;-1.50
11849;BMP180;5983;49.966;8.052;2023-03-03T06:30:54;100984.00;;;-1.40
11849;BMP180;5983;49.966;8.052;2023-03-03T06:33:21;100979.00;;;-1.40
11849;BMP180;5983;49.966;8.052;2023-03-03T06:35:49;100982.00;;;-1.40
11849;BMP180;5983;49.966;8.052;2023-03-03T06:38:16;100982.00;;;-1.30
11849;BMP180;5983;49.966;8.052;2023-03-03T06:40:44;100995.00;;;-1.30
11849;BMP180;5983;49.966;8.052;2023-03-03T06:43:13;100985.00;;;-1.20
11849;BMP180;5983;49.966;8.052;2023-03-03T06:45:40;100996.00;;;-1.00
11849;BMP180;5983;49.966;8.052;2023-03-03T06:48:07;101007.00;;;-0.80
11849;BMP180;5983;49.966;8.052;2023-03-03T06:50:34;101015.00;;;-0.70
11849;BMP180;5983;49.966;8.052;2023-03-03T06:53:10;101021.00;;;-0.50
11849;BMP180;5983;49.966;8.052;2023-03-03T06:55:38;101021.00;;;-0.30
11849;BMP180;5983;49.966;8.052;2023-03-03T06:58:13;101019.00;;;-0.10
11849;BMP180;5983;49.966;8.052;2023-03-03T07:00:41;101026.00;;;0.10
11849;BMP180;5983;49.966;8.052;2023-03-03T07:03:14;101025.00;;;0.30
11849;BMP180;5983;49.966;8.052;2023-03-03T07:05:42;101034.00;;;0.60
11849;BMP180;5983;49.966;8.052;2023-03-03T07:08:14;101045.00;;;1.00
11849;BMP180;5983;49.966;8.052;2023-03-03T07:10:43;101051.00;;;1.50
11849;BMP180;5983;49.966;8.052;2023-03-03T07:13:25;101047.00;;;1.80
11849;BMP180;5983;49.966;8.052;2023-03-03T07:15:54;101059.00;;;2.10
11849;BMP180;5983;49.966;8.052;2023-03-03T07:18:34;101065.00;;;2.50
11849;BMP180;5983;49.966;8.052;2023-03-03T07:21:15;101074.00;;;2.90
11849;BMP180;5983;49.966;8.052;2023-03-03T07:23:44;101063.00;;;3.20
11849;BMP180;5983;49.966;8.052;2023-03-03T07:26:14;101073.00;;;3.70
11849;BMP180;5983;49.966;8.052;2023-03-03T07:28:45;101078.00;;;4.20
11849;BMP180;5983;49.966;8.052;2023-03-03T07:31:33;101076.00;;;4.60
11849;BMP180;5983;49.966;8.052;2023-03-03T07:34:14;101081.00;;;5.30
11849;BMP180;5983;49.966;8.052;2023-03-03T07:36:42;101095.00;;;5.80
11849;BMP180;5983;49.966;8.052;2023-03-03T07:39:29;101107.00;;;6.50
11849;BMP180;5983;49.966;8.052;2023-03-03T07:42:14;101113.00;;;7.50
11849;BMP180;5983;49.966;8.052;2023-03-03T07:44:45;101115.00;;;8.30
11849;BMP180;5983;49.966;8.052;2023-03-03T07:47:20;101119.00;;;8.70
11849;BMP180;5983;49.966;8.052;2023-03-03T07:49:49;101120.00;;;9.00
11849;BMP180;5983;49.966;8.052;2023-03-03T07:52:25;101141.00;;;9.20
11849;BMP180;5983;49.966;8.052;2023-03-03T07:54:55;101142.00;;;9.90
11849;BMP180;5983;49.966;8.052;2023-03-03T07:57:26;101147.00;;;10.30
11849;BMP180;5983;49.966;8.052;2023-03-03T07:59:59;101156.00;;;10.60
11849;BMP180;5983;49.966;8.052;2023-03-03T08:02:38;101143.00;;;11.00
11849;BMP180;5983;49.966;8.052;2023-03-03T08:05:29;101162.00;;;11.50
11849;BMP180;5983;49.966;8.052;2023-03-03T08:08:14;101166.00;;;12.00
11849;BMP180;5983;49.966;8.052;2023-03-03T08:10:48;101163.00;;;12.30
11849;BMP180;5983;49.966;8.052;2023-03-03T08:13:18;101165.00;;;12.60
11849;BMP180;5983;49.966;8.052;2023-03-03T08:15:50;101163.00;;;13.10
11849;BMP180;5983;49.966;8.052;2023-03-03T08:18:23;101169.00;;;13.50
11849;BMP180;5983;49.966;8.052;2023-03-03T08:20:55;101166.00;;;13.90
11849;BMP180;5983;49.966;8.052;2023-03-03T08:23:22;101170.00;;;14.20
11849;BMP180;5983;49.966;8.052;2023-03-03T08:25:50;101172.00;;;14.70
11849;BMP180;5983;49.966;8.052;2023-03-03T08:28:18;101179.00;;;15.30
11849;BMP180;5983;49.966;8.052;2023-03-03T08:30:48;101191.00;;;15.70
11849;BMP180;5983;49.966;8.052;2023-03-03T08:33:16;101190.00;;;15.90
11849;BMP180;5983;49.966;8.052;2023-03-03T08:35:44;101195.00;;;16.40
11849;BMP180;5983;49.966;8.052;2023-03-03T08:38:14;101192.00;;;16.10
11849;BMP180;5983;49.966;8.052;2023-03-03T08:40:41;101192.00;;;16.70
11849;BMP180;5983;49.966;8.052;2023-03-03T08:43:09;101185.00;;;16.90
11849;BMP180;5983;49.966;8.052;2023-03-03T08:45:39;101186.00;;;17.30
11849;BMP180;5983;49.966;8.052;2023-03-03T08:48:07;101198.00;;;17.40
11849;BMP180;5983;49.966;8.052;2023-03-03T08:50:34;101199.00;;;17.30
11849;BMP180;5983;49.966;8.052;2023-03-03T08:53:01;101203.00;;;17.50
11849;BMP180;5983;49.966;8.052;2023-03-03T08:55:28;101209.00;;;18.20
11849;BMP180;5983;49.966;8.052;2023-03-03T08:57:55;101193.00;;;18.30
11849;BMP180;5983;49.966;8.052;2023-03-03T09:00:22;101195.00;;;19.00
11849;BMP180;5983;49.966;8.052;2023-03-03T09:02:50;101198.00;;;18.90
11849;BMP180;5983;49.966;8.052;2023-03-03T09:05:20;101204.00;;;19.60
11849;BMP180;5983;49.966;8.052;2023-03-03T09:07:48;101203.00;;;19.70
11849;BMP180;5983;49.966;8.052;2023-03-03T09:10:20;101210.00;;;19.70
11849;BMP180;5983;49.966;8.052;2023-03-03T09:12:55;101203.00;;;19.90
11849;BMP180;5983;49.966;8.052;2023-03-03T09:15:26;101218.00;;;20.30
11849;BMP180;5983;49.966;8.052;2023-03-03T09:17:57;101218.00;;;20.40
11849;BMP180;5983;49.966;8.052;2023-03-03T09:20:33;101221.00;;;20.80
11849;BMP180;5983;49.966;8.052;2023-03-03T09:23:33;101227.00;;;21.20
11849;BMP180;5983;49.966;8.052;2023-03-03T09:26:24;101223.00;;;21.30
11849;BMP180;5983;49.966;8.052;2023-03-03T09:28:55;101222.00;;;21.30
11849;BMP180;5983;49.966;8.052;2023-03-03T09:31:26;101222.00;;;21.50
11849;BMP180;5983;49.966;8.052;2023-03-03T09:33:57;101237.00;;;21.40
11849;BMP180;5983;49.966;8.052;2023-03-03T09:36:28;101235.00;;;21.40
11849;BMP180;5983;49.966;8.052;2023-03-03T09:38:56;101226.00;;;21.60
11849;BMP180;5983;49.966;8.052;2023-03-03T09:48:56;101246.00;;;22.90
11849;BMP180;5983;49.966;8.052;2023-03-03T09:51:49;101256.00;;;22.90
11849;BMP180;5983;49.966;8.052;2023-03-03T09:54:43;101259.00;;;23.50
11849;BMP180;5983;49.966;8.052;2023-03-03T09:57:20;101266.00;;;23.40
11849;BMP180;5983;49.966;8.052;2023-03-03T10:00:18;101259.00;;;23.50
11849;BMP180;5983;49.966;8.052;2023-03-03T10:03:02;101257.00;;;23.50
11849;BMP180;5983;49.966;8.052;2023-03-03T10:05:46;101255.00;;;24.00
11849;BMP180;5983;49.966;8.052;2023-03-03T10:08:35;101268.00;;;23.70
11849;BMP180;5983;49.966;8.052;2023-03-03T10:11:17;101266.00;;;23.80
11849;BMP180;5983;49.966;8.052;2023-03-03T10:17:13;101271.00;;;24.10
11849;BMP180;5983;49.966;8.052;2023-03-03T10:19:52;101275.00;;;23.40
11849;BMP180;5983;49.966;8.052;2023-03-03T10:22:33;101267.00;;;23.80
11849;BMP180;5983;49.966;8.052;2023-03-03T10:25:24;101269.00;;;24.20
11849;BMP180;5983;49.966;8.052;2023-03-03T10:28:27;101275.00;;;24.50
11849;BMP180;5983;49.966;8.052;2023-03-03T10:31:09;101268.00;;;24.30
11849;BMP180;5983;49.966;8.052;2023-03-03T10:33:53;101271.00;;;24.00
11849;BMP180;5983;49.966;8.052;2023-03-03T10:36:34;101274.00;;;23.90
11849;BMP180;5983;49.966;8.052;2023-03-03T10:39:25;101278.00;;;24.40
11849;BMP180;5983;49.966;8.052;2023-03-03T10:42:22;101283.00;;;24.70
11849;BMP180;5983;49.966;8.052;2023-03-03T10:45:17;101283.00;;;24.50
11849;BMP180;5983;49.966;8.052;2023-03-03T10:48:11;101281.00;;;24.70
11849;BMP180;5983;49.966;8.052;2023-03-03T10:50:53;101281.00;;;24.20
11849;BMP180;5983;49.966;8.052;2023-03-03T10:53:31;101283.00;;;24.70
11849;BMP180;5983;49.966;8.052;2023-03-03T10:56:21;101282.00;;;24.60
11849;BMP180;5983;49.966;8.052;2023-03-03T10:59:09;101285.00;;;24.70
11849;BMP180;5983;49.966;8.052;2023-03-03T11:01:48;101281.00;;;24.90
11849;BMP180;5983;49.966;8.052;2023-03-03T11:04:45;101282.00;;;25.30
11849;BMP180;5983;49.966;8.052;2023-03-03T11:07:19;101282.00;;;25.30
11849;BMP180;5983;49.966;8.052;2023-03-03T11:10:02;101280.00;;;25.40
11849;BMP180;5983;49.966;8.052;2023-03-03T11:12:46;101293.00;;;25.60
11849;BMP180;5983;49.966;8.052;2023-03-03T11:15:36;101298.00;;;25.70
11849;BMP180;5983;49.966;8.052;2023-03-03T11:18:22;101288.00;;;25.70
11849;BMP180;5983;49.966;8.052;2023-03-03T11:21:01;101296.00;;;26.00
11849;BMP180;5983;49.966;8.052;2023-03-03T11:24:10;101291.00;;;26.30
11849;BMP180;5983;49.966;8.052;2023-03-03T11:26:58;101286.00;;;26.20
11849;BMP180;5983;49.966;8.052;2023-03-03T11:30:02;101293.00;;;26.20
11849;BMP180;5983;49.966;8.052;2023-03-03T11:32:41;101284.00;;;26.30
11849;BMP180;5983;49.966;8.052;2023-03-03T11:35:22;101285.00;;;26.50
11849;BMP180;5983;49.966;8.052;2023-03-03T11:38:06;101283.00;;;26.20
11849;BMP180;5983;49.966;8.052;2023-03-03T11:40:46;101270.00;;;26.20
11849;BMP180;5983;49.966;8.052;2023-03-03T11:43:21;101278.00;;;25.60
11849;BMP180;5983;49.966;8.052;2023-03-03T11:45:57;101279.00;;;25.60
11849;BMP180;5983;49.966;8.052;2023-03-03T11:48:38;101273.00;;;25.70
11849;BMP180;5983;49.966;8.052;2023-03-03T11:51:13;101270.00;;;25.90
11849;BMP180;5983;49.966;8.052;2023-03-03T11:53:55;101261.00;;;26.20
11849;BMP180;5983;49.966;8.052;2023-03-03T11:56:29;101259.00;;;26.10
11849;BMP180;5983;49.966;8.052;2023-03-03T12:02:31;101255.00;;;26.40
11849;BMP180;5983;49.966;8.052;2023-03-03T12:05:10;101270.00;;;26.80
11849;BMP180;5983;49.966;8.052;2023-03-03T12:07:51;101256.00;;;26.50
11849;BMP180;5983;49.966;8.052;2023-03-03T12:10:27;101250.00;;;26.90
11849;BMP180;5983;49.966;8.052;2023-03-03T12:13:02;101245.00;;;26.70
11849;BMP180;5983;49.966;8.052;2023-03-03T12:15:40;101244.00;;;26.80
11849;BMP180;5983;49.966;8.052;2023-03-03T12:18:46;101232.00;;;26.50
11849;BMP180;5983;49.966;8.052;2023-03-03T12:21:40;101228.00;;;26.40
11849;BMP180;5983;49.966;8.052;2023-03-03T12:24:30;101227.00;;;27.10
11849;BMP180;5983;49.966;8.052;2023-03-03T12:27:14;101226.00;;;27.40
11849;BMP180;5983;49.966;8.052;2023-03-03T12:29:58;101218.00;;;27.20
11849;BMP180;5983;49.966;8.052;2023-03-03T12:32:45;101222.00;;;27.70
11849;BMP180;5983;49.966;8.052;2023-03-03T12:35:25;101222.00;;;27.80
11849;BMP180;5983;49.966;8.052;2023-03-03T12:38:10;101210.00;;;27.80
11849;BMP180;5983;49.966;8.052;2023-03-03T12:40:50;101205.00;;;27.00
11849;BMP180;5983;49.966;8.052;2023-03-03T12:43:42;101207.00;;;27.30
11849;BMP180;5983;49.966;8.052;2023-03-03T12:46:20;101196.00;;;27.60
11849;BMP180;5983;49.966;8.052;2023-03-03T12:48:48;101201.00;;;27.30
11849;BMP180;5983;49.966;8.052;2023-03-03T12:51:32;101199.00;;;27.40
11849;BMP180;5983;49.966;8.052;2023-03-03T12:57:26;101193.00;;;27.70
11849;BMP180;5983;49.966;8.052;2023-03-03T13:00:21;101184.00;;;27.70
11849;BMP180;5983;49.966;8.052;2023-03-03T13:03:00;101177.00;;;27.50
11849;BMP180;5983;49.966;8.052;2023-03-03T13:05:43;101186.00;;;27.60
11849;BMP180;5983;49.966;8.052;2023-03-03T13:08:30;101177.00;;;28.10
11849;BMP180;5983;49.966;8.052;2023-03-03T13:11:19;101175.00;;;27.80
11849;BMP180;5983;49.966;8.052;2023-03-03T13:13:53;101180.00;;;27.80
11849;BMP180;5983;49.966;8.052;2023-03-03T13:16:31;101177.00;;;28.30
11849;BMP180;5983;49.966;8.052;2023-03-03T13:19:05;101173.00;;;27.90
11849;BMP180;5983;49.966;8.052;2023-03-03T13:21:39;101165.00;;;27.80
11849;BMP180;5983;49.966;8.052;2023-03-03T13:24:18;101174.00;;;28.00
11849;BMP180;5983;49.966;8.052;2023-03-03T13:26:55;101167.00;;;28.20
11849;BMP180;5983;49.966;8.052;2023-03-03T13:29:28;101162.00;;;28.20
11849;BMP180;5983;49.966;8.052;2023-03-03T13:31:59;101165.00;;;28.00
11849;BMP180;5983;49.966;8.052;2023-03-03T13:34:41;101164.00;;;27.50
11849;BMP180;5983;49.966;8.052;2023-03-03T13:37:19;101162.00;;;27.40
11849;BMP180;5983;49.966;8.052;2023-03-03T13:39:56;101164.00;;;27.10
11849;BMP180;5983;49.966;8.052;2023-03-03T13:42:32;101159.00;;;27.60
11849;BMP180;5983;49.966;8.052;2023-03-03T13:45:17;101159.00;;;27.60
11849;BMP180;5983;49.966;8.052;2023-03-03T13:47:54;101160.00;;;27.10
11849;BMP180;5983;49.966;8.052;2023-03-03T13:50:31;101156.00;;;26.60
11849;BMP180;5983;49.966;8.052;2023-03-03T13:53:24;101146.00;;;26.70
11849;BMP180;5983;49.966;8.052;2023-03-03T13:56:05;101144.00;;;26.70
11849;BMP180;5983;49.966;8.052;2023-03-03T13:58:46;101142.00;;;26.80
11849;BMP180;5983;49.966;8.052;2023-03-03T14:01:25;101144.00;;;26.60
11849;BMP180;5983;49.966;8.052;2023-03-03T14:04:04;101137.00;;;26.50
11849;BMP180;5983;49.966;8.052;2023-03-03T14:06:34;101129.00;;;26.70
11849;BMP180;5983;49.966;8.052;2023-03-03T14:09:19;101135.00;;;26.80
11849;BMP180;5983;49.966;8.052;2023-03-03T14:11:54;101133.00;;;26.80
11849;BMP180;5983;49.966;8.052;2023-03-03T14:14:46;101128.00;;;26.40
11849;BMP180;5983;49.966;8.052;2023-03-03T14:17:26;101131.00;;;26.60
11849;BMP180;5983;49.966;8.052;2023-03-03T14:20:05;101120.00;;;26.10
11849;BMP180;5983;49.966;8.052;2023-03-03T14:22:45;101126.00;;;26.00
11849;BMP180;5983;49.966;8.052;2023-03-03T14:25:17;101127.00;;;25.60
11849;BMP180;5983;49.966;8.052;2023-03-03T14:28:02;101118.00;;;25.30
11849;BMP180;5983;49.966;8.052;2023-03-03T14:30:36;101116.00;;;25.40
11849;BMP180;5983;49.966;8.052;2023-03-03T14:33:18;101120.00;;;25.20
11849;BMP180;5983;49.966;8.052;2023-03-03T14:35:59;101121.00;;;25.50
11849;BMP180;5983;49.966;8.052;2023-03-03T14:38:39;101116.00;;;25.10
11849;BMP180;5983;49.966;8.052;2023-03-03T14:41:21;101114.00;;;24.80
11849;BMP180;5983;49.966;8.052;2023-03-03T14:43:59;101115.00;;;24.70
11849;BMP180;5983;49.966;8.052;2023-03-03T14:46:37;101114.00;;;24.40
11849;BMP180;5983;49.966;8.052;2023-03-03T14:49:15;101112.00;;;23.60
11849;BMP180;5983;49.966;8.052;2023-03-03T14:52:01;101112.00;;;22.50
11849;BMP180;5983;49.966;8.052;2023-03-03T14:54:37;101107.00;;;21.50
11849;BMP180;5983;49.966;8.052;2023-03-03T14:57:14;101100.00;;;20.30
11849;BMP180;5983;49.966;8.052;2023-03-03T14:59:56;101104.00;;;19.10
11849;BMP180;5983;49.966;8.052;2023-03-03T15:02:31;101104.00;;;18.20
11849;BMP180;5983;49.966;8.052;2023-03-03T15:05:20;101091.00;;;17.30
11849;BMP180;5983;49.966;8.052;2023-03-03T15:07:55;101106.00;;;16.80